createdAt,value
2018-03-06T00:00:14.954Z,12.30
2018-03-06T00:02:43.423Z,12.93
2018-03-06T00:05:11.112Z,12.83
2018-03-06T00:07:38.784Z,13.57
2018-03-06T00:10:06.375Z,13.93
2018-03-06T00:12:34.050Z,13.97
2018-03-06T00:15:01.631Z,13.90
2018-03-06T00:17:30.022Z,13.07
2018-03-06T00:19:57.602Z,13.57
2018-03-06T00:22:25.993Z,14.07
2018-03-06T00:24:54.333Z,15.43
2018-03-06T00:27:21.958Z,15.67
2018-03-06T00:29:50.313Z,15.17
2018-03-06T00:32:17.893Z,14.20
2018-03-06T00:34:45.479Z,14.37
2018-03-06T00:37:13.115Z,13.77
2018-03-06T00:39:40.703Z,14.20
2018-03-06T00:42:08.292Z,14.07
2018-03-06T00:44:35.893Z,15.10
2018-03-06T00:47:04.241Z,14.90
2018-03-06T00:49:31.827Z,15.33
2018-03-06T00:51:59.431Z,15.83
2018-03-06T00:54:27.024Z,14.87
2018-03-06T00:56:54.634Z,15.63
2018-03-06T00:59:22.243Z,15.13
2018-03-06T01:01:50.595Z,17.00
2018-03-06T01:04:18.186Z,16.87
2018-03-06T01:06:45.798Z,17.13
2018-03-06T01:09:13.402Z,15.83
2018-03-06T01:11:41.802Z,16.50
2018-03-06T01:14:09.411Z,17.47
2018-03-06T01:16:37.819Z,17.90
2018-03-06T01:19:06.180Z,17.23
2018-03-06T01:21:34.538Z,16.37
2018-03-06T01:24:02.149Z,16.20
2018-03-06T01:26:30.481Z,15.37
2018-03-06T01:28:58.142Z,16.27
2018-03-06T01:31:26.828Z,15.23
2018-03-06T01:33:55.251Z,14.73
2018-03-06T01:36:22.838Z,15.30
2018-03-06T01:38:50.414Z,14.27
2018-03-06T01:41:18.007Z,14.67
2018-03-06T01:43:45.951Z,14.43
2018-03-06T01:46:13.567Z,14.27
2018-03-06T01:48:41.150Z,14.63
2018-03-06T01:51:09.509Z,14.73
2018-03-06T01:53:37.277Z,15.30
2018-03-06T01:56:04.856Z,15.80
2018-03-06T01:58:32.458Z,15.30
2018-03-06T02:01:00.077Z,15.50
2018-03-06T02:03:27.686Z,15.17
2018-03-06T02:05:56.015Z,15.57
2018-03-06T02:08:23.604Z,15.23
2018-03-06T02:10:51.153Z,14.23
2018-03-06T02:13:18.751Z,13.50
2018-03-06T02:15:46.570Z,13.97
2018-03-06T02:18:14.233Z,14.60
2018-03-06T02:20:41.846Z,16.10
2018-03-06T02:23:10.191Z,15.63
2018-03-06T02:25:38.070Z,16.20
2018-03-06T02:28:05.651Z,16.17
2018-03-06T02:30:33.334Z,15.00
2018-03-06T02:33:00.913Z,14.43
2018-03-06T02:35:28.560Z,16.63
2018-03-06T02:37:56.138Z,15.90
2018-03-06T02:40:23.782Z,16.07
2018-03-06T02:42:51.363Z,13.73
2018-03-06T02:45:18.989Z,14.07
2018-03-06T02:47:47.345Z,14.43
2018-03-06T02:50:14.926Z,14.70
2018-03-06T02:52:42.510Z,16.07
2018-03-06T02:55:10.094Z,16.37
2018-03-06T02:57:39.269Z,17.20
2018-03-06T03:00:06.854Z,16.57
2018-03-06T03:02:35.215Z,16.13
2018-03-06T03:05:03.357Z,15.40
2018-03-06T03:07:31.716Z,14.43
2018-03-06T03:09:59.304Z,14.50
2018-03-06T03:12:26.890Z,14.00
2018-03-06T03:14:55.279Z,13.77
2018-03-06T03:17:23.658Z,14.87
2018-03-06T03:19:51.303Z,15.93
2018-03-06T03:22:19.590Z,15.60
2018-03-06T03:24:47.215Z,16.40
2018-03-06T03:27:15.663Z,17.67
2018-03-06T03:29:43.273Z,17.50
2018-03-06T03:32:10.989Z,16.20
2018-03-06T03:34:38.602Z,16.67
2018-03-06T03:37:06.199Z,17.33
2018-03-06T03:39:34.583Z,18.63
2018-03-06T03:42:02.996Z,19.27
2018-03-06T03:44:30.576Z,19.80
2018-03-06T03:46:58.906Z,18.50
2018-03-06T03:49:26.487Z,17.83
2018-03-06T03:51:54.073Z,18.03
2018-03-06T03:54:21.653Z,18.17
2018-03-06T03:56:49.230Z,18.37
2018-03-06T03:59:17.609Z,17.73
2018-03-06T04:01:45.277Z,19.53
2018-03-06T04:04:12.905Z,19.80
2018-03-06T04:06:40.585Z,23.27
2018-03-06T04:09:08.216Z,20.67
2018-03-06T04:11:35.815Z,24.13
2018-03-06T04:14:03.413Z,24.40
2018-03-06T04:16:31.009Z,23.60
2018-03-06T04:18:58.595Z,21.80
2018-03-06T04:21:26.253Z,18.63
2018-03-06T04:23:53.845Z,17.67
2018-03-06T04:26:21.445Z,18.23
2018-03-06T04:28:49.108Z,17.93
2018-03-06T04:31:16.722Z,17.53
2018-03-06T04:33:44.322Z,17.83
2018-03-06T04:36:11.920Z,17.93
2018-03-06T04:38:39.660Z,17.27
2018-03-06T04:41:07.261Z,18.23
2018-03-06T04:43:34.863Z,17.90
2018-03-06T04:46:02.446Z,17.87
2018-03-06T04:48:30.014Z,18.33
2018-03-06T04:50:57.602Z,18.57
2018-03-06T04:53:25.189Z,19.53
2018-03-06T04:55:52.818Z,17.50
2018-03-06T04:58:20.429Z,17.80
2018-03-06T05:00:48.011Z,17.37
2018-03-06T05:03:15.634Z,17.17
2018-03-06T05:05:43.283Z,17.93
2018-03-06T05:08:10.903Z,17.00
2018-03-06T05:10:38.679Z,17.07
2018-03-06T05:13:06.271Z,18.50
2018-03-06T05:15:33.864Z,17.93
2018-03-06T05:18:01.454Z,17.83
2018-03-06T05:20:29.046Z,17.67
2018-03-06T05:22:56.671Z,20.97
2018-03-06T05:25:24.241Z,18.63
2018-03-06T05:27:51.912Z,18.77
2018-03-06T05:30:19.489Z,17.43
2018-03-06T05:32:47.071Z,17.00
2018-03-06T05:35:14.669Z,16.10
2018-03-06T05:37:43.080Z,16.10
2018-03-06T05:40:10.685Z,17.17
2018-03-06T05:42:38.292Z,17.93
2018-03-06T05:45:05.862Z,19.20
2018-03-06T05:47:33.471Z,18.13
2018-03-06T05:50:02.058Z,18.20
2018-03-06T05:52:30.476Z,17.97
2018-03-06T05:54:58.072Z,16.60
2018-03-06T05:57:25.719Z,17.20
2018-03-06T05:59:53.293Z,18.33
2018-03-06T06:02:20.890Z,17.77
2018-03-06T06:04:48.567Z,18.03
2018-03-06T06:07:16.197Z,18.10
2018-03-06T06:09:43.809Z,17.83
2018-03-06T06:12:11.416Z,17.53
2018-03-06T06:14:39.210Z,17.23
2018-03-06T06:17:06.808Z,18.53
2018-03-06T06:19:35.194Z,17.40
2018-03-06T06:22:03.560Z,16.90
2018-03-06T06:24:31.170Z,16.03
2018-03-06T06:26:58.768Z,17.70
2018-03-06T06:29:26.362Z,20.13
2018-03-06T06:31:54.048Z,18.17
2018-03-06T06:34:22.469Z,20.20
2018-03-06T06:36:50.819Z,19.80
2018-03-06T06:39:18.456Z,21.33
2018-03-06T06:41:46.070Z,20.03
2018-03-06T06:44:14.477Z,20.27
2018-03-06T06:46:42.911Z,22.37
2018-03-06T06:49:11.266Z,21.90
2018-03-06T06:51:39.614Z,19.47
2018-03-06T06:54:07.194Z,19.00
2018-03-06T06:56:34.765Z,19.57
2018-03-06T06:59:02.373Z,20.73
2018-03-06T07:01:30.016Z,20.40
2018-03-06T07:03:57.579Z,19.33
2018-03-06T07:06:25.173Z,21.07
2018-03-06T07:08:52.835Z,20.77
2018-03-06T07:11:20.563Z,21.20
2018-03-06T07:13:48.167Z,19.20
2018-03-06T07:16:15.780Z,19.90
2018-03-06T07:18:43.394Z,18.93
2018-03-06T07:21:11.009Z,18.23
2018-03-06T07:23:39.152Z,18.20
2018-03-06T07:26:06.740Z,17.97
2018-03-06T07:28:34.429Z,19.10
2018-03-06T07:31:02.010Z,18.03
2018-03-06T07:33:29.663Z,19.67
2018-03-06T07:35:57.251Z,20.93
2018-03-06T07:38:24.871Z,21.20
2018-03-06T07:40:53.229Z,21.03
2018-03-06T07:43:21.650Z,22.17
2018-03-06T07:45:49.262Z,23.03
2018-03-06T07:48:16.921Z,21.93
2018-03-06T07:50:44.528Z,22.47
2018-03-06T07:53:12.144Z,24.23
2018-03-06T07:55:39.732Z,20.60
2018-03-06T07:58:08.115Z,21.57
2018-03-06T08:00:37.263Z,22.90
2018-03-06T08:03:05.686Z,23.53
2018-03-06T08:05:33.289Z,23.73
2018-03-06T08:08:00.938Z,23.87
2018-03-06T08:10:28.526Z,22.57
2018-03-06T08:12:56.157Z,21.63
2018-03-06T08:15:23.757Z,21.03
2018-03-06T08:17:51.388Z,21.07
2018-03-06T08:20:19.042Z,19.10
2018-03-06T08:22:46.637Z,19.27
2018-03-06T08:25:14.254Z,20.50
2018-03-06T08:27:41.828Z,21.13
2018-03-06T08:30:10.208Z,20.60
2018-03-06T08:32:39.009Z,21.43
2018-03-06T08:35:07.390Z,21.07
2018-03-06T08:37:34.941Z,21.00
2018-03-06T08:40:02.545Z,19.50
2018-03-06T08:42:30.134Z,18.90
2018-03-06T08:44:58.543Z,19.13
2018-03-06T08:47:27.454Z,19.57
2018-03-06T08:49:55.050Z,18.80
2018-03-06T08:52:59.130Z,20.63
2018-03-06T08:55:28.723Z,18.90
2018-03-06T08:57:58.063Z,21.70
2018-03-06T09:00:26.475Z,19.50
2018-03-06T09:02:54.934Z,18.00
2018-03-06T09:05:23.581Z,18.83
2018-03-06T09:07:51.171Z,17.30
2018-03-06T09:10:18.750Z,17.37
2018-03-06T09:12:46.360Z,17.57
2018-03-06T09:15:13.935Z,19.17
2018-03-06T09:17:42.185Z,20.03
2018-03-06T09:20:11.115Z,19.40
2018-03-06T09:22:39.902Z,20.80
2018-03-06T09:25:08.379Z,19.27
2018-03-06T09:27:37.669Z,18.97
2018-03-06T09:30:06.019Z,19.40
2018-03-06T09:32:33.931Z,21.37
2018-03-06T09:35:06.846Z,24.43
2018-03-06T09:37:35.224Z,23.60
2018-03-06T09:40:05.328Z,21.83
2018-03-06T09:42:34.602Z,21.33
2018-03-06T09:45:03.406Z,20.47
2018-03-06T09:47:32.106Z,19.87
2018-03-06T09:50:01.914Z,19.53
2018-03-06T09:52:30.012Z,19.87
2018-03-06T09:54:57.831Z,19.67
2018-03-06T09:57:25.517Z,19.53
2018-03-06T09:59:53.404Z,19.00
2018-03-06T10:02:22.877Z,19.70
2018-03-06T10:04:50.937Z,18.53
2018-03-06T10:07:18.554Z,17.67
2018-03-06T10:09:47.027Z,19.03
2018-03-06T10:12:15.451Z,20.20
2018-03-06T10:14:43.871Z,19.83
2018-03-06T10:17:11.527Z,20.50
2018-03-06T10:19:39.469Z,20.70
2018-03-06T10:22:07.162Z,20.03
2018-03-06T10:24:35.567Z,21.80
2018-03-06T10:27:03.975Z,23.03
2018-03-06T10:29:31.635Z,23.30
2018-03-06T10:31:59.358Z,23.10
2018-03-06T10:34:27.002Z,21.47
2018-03-06T10:36:54.621Z,21.43
2018-03-06T10:39:23.070Z,21.80
2018-03-06T10:41:50.708Z,21.70
2018-03-06T10:44:19.129Z,21.93
2018-03-06T10:46:46.756Z,22.67
2018-03-06T10:49:16.064Z,22.30
2018-03-06T10:51:43.663Z,21.63
2018-03-06T10:54:12.055Z,20.83
2018-03-06T10:56:40.424Z,22.83
2018-03-06T10:59:08.046Z,22.13
2018-03-06T11:01:36.700Z,22.47
2018-03-06T11:04:04.361Z,22.13
2018-03-06T11:06:31.960Z,22.07
2018-03-06T11:09:00.334Z,21.60
2018-03-06T11:11:27.921Z,21.67
2018-03-06T11:13:56.260Z,22.13
2018-03-06T11:16:23.845Z,21.87
2018-03-06T11:18:51.459Z,22.10
2018-03-06T11:21:19.135Z,23.10
2018-03-06T11:23:47.584Z,24.20
2018-03-06T11:26:15.166Z,23.23
2018-03-06T11:28:42.771Z,21.93
2018-03-06T11:31:11.175Z,21.40
2018-03-06T11:33:39.542Z,20.53
2018-03-06T11:36:07.126Z,20.10
2018-03-06T11:38:34.746Z,19.63
2018-03-06T11:41:03.073Z,20.03
2018-03-06T11:43:30.772Z,19.07
2018-03-06T11:45:59.165Z,18.83
2018-03-06T11:48:26.777Z,18.93
2018-03-06T11:50:54.742Z,18.37
2018-03-06T11:53:22.371Z,17.77
2018-03-06T11:55:49.936Z,16.50
2018-03-06T11:58:18.304Z,17.73
2018-03-06T12:00:45.881Z,16.87
2018-03-06T12:03:13.494Z,17.33
2018-03-06T12:05:41.134Z,16.80
2018-03-06T12:08:08.804Z,16.47
2018-03-06T12:10:36.394Z,15.50
2018-03-06T12:13:04.802Z,16.30
2018-03-06T12:15:33.167Z,16.10
2018-03-06T12:18:00.908Z,15.33
2018-03-06T12:20:28.481Z,15.23
2018-03-06T12:22:56.056Z,15.17
2018-03-06T12:25:23.682Z,16.30
2018-03-06T12:27:52.047Z,15.73
2018-03-06T12:30:19.652Z,14.53
2018-03-06T12:32:48.011Z,13.70
2018-03-06T12:35:15.686Z,13.73
2018-03-06T12:37:43.351Z,14.17
2018-03-06T12:40:10.937Z,13.57
2018-03-06T12:42:38.629Z,12.23
2018-03-06T12:45:06.987Z,12.47
2018-03-06T12:47:34.609Z,11.70
2018-03-06T12:50:02.201Z,11.80
2018-03-06T12:52:29.832Z,12.03
2018-03-06T12:54:58.379Z,11.50
2018-03-06T12:57:25.892Z,10.93
2018-03-06T12:59:53.526Z,11.50
2018-03-06T13:02:21.120Z,10.90
2018-03-06T13:04:50.327Z,11.03
2018-03-06T13:07:17.964Z,9.00
2018-03-06T13:09:45.630Z,10.00
2018-03-06T13:12:13.249Z,9.90
2018-03-06T13:14:40.867Z,10.17
2018-03-06T13:17:08.474Z,10.10
2018-03-06T13:19:36.116Z,9.60
2018-03-06T13:22:03.723Z,9.00
2018-03-06T13:24:31.357Z,9.40
2018-03-06T13:26:59.691Z,10.07
2018-03-06T13:29:27.336Z,10.60
2018-03-06T13:31:54.902Z,10.70
2018-03-06T13:34:22.485Z,11.87
2018-03-06T13:36:50.150Z,12.20
2018-03-06T13:39:17.774Z,12.30
2018-03-06T13:41:45.412Z,13.40
2018-03-06T13:44:12.983Z,13.50
2018-03-06T13:46:40.560Z,13.53
2018-03-06T13:49:08.164Z,13.50
2018-03-06T13:51:35.789Z,13.73
2018-03-06T13:54:03.559Z,14.10
2018-03-06T13:56:31.216Z,13.77
2018-03-06T13:59:00.213Z,15.27
2018-03-06T14:01:28.616Z,14.37
2018-03-06T14:03:57.044Z,14.20
2018-03-06T14:06:24.707Z,12.37
2018-03-06T14:08:52.908Z,11.63
2018-03-06T14:11:22.212Z,10.87
2018-03-06T14:13:49.783Z,11.07
2018-03-06T14:16:17.423Z,11.00
2018-03-06T14:18:45.025Z,12.10
2018-03-06T14:21:12.646Z,11.53
2018-03-06T14:23:41.076Z,11.03
2018-03-06T14:26:08.665Z,10.37
2018-03-06T14:28:36.240Z,12.07
2018-03-06T14:31:03.869Z,12.60
2018-03-06T14:33:32.244Z,12.77
2018-03-06T14:36:01.608Z,15.33
2018-03-06T14:38:29.166Z,13.27
2018-03-06T14:40:58.205Z,12.93
2018-03-06T14:43:25.810Z,12.17
2018-03-06T14:45:53.421Z,12.07
2018-03-06T14:48:21.028Z,11.03
2018-03-06T14:50:48.603Z,11.03
2018-03-06T14:53:16.886Z,10.47
2018-03-06T14:55:44.475Z,11.87
2018-03-06T14:58:12.124Z,11.37
2018-03-06T15:00:39.825Z,16.83
2018-03-06T15:03:07.626Z,12.93
2018-03-06T15:05:35.199Z,11.10
2018-03-06T15:08:02.780Z,12.07
2018-03-06T15:10:31.141Z,11.77
2018-03-06T15:12:58.716Z,12.23
2018-03-06T15:15:26.338Z,11.97
2018-03-06T15:17:53.935Z,12.33
2018-03-06T15:20:22.309Z,11.73
2018-03-06T15:22:49.890Z,11.90
2018-03-06T15:25:17.540Z,12.90
2018-03-06T15:27:45.148Z,12.20
2018-03-06T15:30:12.784Z,12.03
2018-03-06T15:32:40.480Z,11.70
2018-03-06T15:35:08.101Z,10.53
2018-03-06T15:37:35.686Z,10.03
2018-03-06T15:40:04.038Z,11.43
2018-03-06T15:42:31.635Z,10.77
2018-03-06T15:44:59.215Z,11.37
2018-03-06T15:47:26.812Z,11.80
2018-03-06T15:49:54.396Z,12.37
2018-03-06T15:52:22.030Z,12.37
2018-03-06T15:54:49.640Z,11.50
2018-03-06T15:57:18.073Z,12.50
2018-03-06T15:59:45.709Z,11.70
2018-03-06T16:02:13.323Z,11.43
2018-03-06T16:04:40.959Z,12.23
2018-03-06T16:07:08.531Z,14.10
2018-03-06T16:09:36.150Z,13.30
2018-03-06T16:12:03.757Z,13.37
2018-03-06T16:14:32.168Z,11.40
2018-03-06T16:16:59.750Z,12.27
2018-03-06T16:19:27.346Z,11.07
2018-03-06T16:21:54.946Z,10.50
2018-03-06T16:24:22.525Z,10.33
2018-03-06T16:26:50.869Z,11.37
2018-03-06T16:29:18.440Z,12.00
2018-03-06T16:31:46.088Z,14.83
2018-03-06T16:34:13.684Z,21.57
2018-03-06T16:36:41.297Z,28.50
2018-03-06T16:39:09.686Z,20.67
2018-03-06T16:41:38.480Z,16.00
2018-03-06T16:44:06.084Z,14.47
2018-03-06T16:46:33.698Z,15.37
2018-03-06T16:49:01.293Z,13.87
2018-03-06T16:51:28.890Z,15.40
2018-03-06T16:53:57.241Z,15.30
2018-03-06T16:56:25.611Z,16.13
2018-03-06T16:58:53.189Z,15.93
2018-03-06T17:01:20.785Z,17.70
2018-03-06T17:03:48.369Z,19.80
2018-03-06T17:06:16.035Z,19.17
2018-03-06T17:08:43.692Z,18.90
2018-03-06T17:11:11.371Z,18.27
2018-03-06T17:13:39.194Z,18.17
2018-03-06T17:16:06.769Z,19.17
2018-03-06T17:18:34.371Z,20.40
2018-03-06T17:21:01.938Z,20.73
2018-03-06T17:23:29.509Z,22.47
2018-03-06T17:25:57.086Z,23.77
2018-03-06T17:28:24.662Z,22.83
2018-03-06T17:30:52.228Z,20.67
2018-03-06T17:33:19.829Z,20.07
2018-03-06T17:35:47.418Z,19.90
2018-03-06T17:38:15.011Z,21.40
2018-03-06T17:40:43.344Z,22.40
2018-03-06T17:43:10.911Z,23.10
2018-03-06T17:45:39.505Z,21.63
2018-03-06T17:48:07.071Z,22.97
2018-03-06T17:50:34.623Z,24.43
2018-03-06T17:53:02.195Z,26.23
2018-03-06T17:55:29.776Z,26.70
2018-03-06T17:57:57.342Z,24.67
2018-03-06T18:00:24.915Z,19.30
2018-03-06T18:02:52.491Z,20.10
2018-03-06T18:05:20.075Z,21.67
2018-03-06T18:07:47.646Z,19.50
2018-03-06T18:10:15.237Z,18.83
2018-03-06T18:12:42.804Z,19.10
2018-03-06T18:15:10.361Z,16.77
2018-03-06T18:17:38.978Z,17.37
2018-03-06T18:20:07.319Z,17.10
2018-03-06T18:22:35.653Z,16.77
2018-03-06T18:25:03.227Z,17.33
2018-03-06T18:27:30.779Z,18.50
2018-03-06T18:29:58.365Z,18.73
2018-03-06T18:32:25.924Z,17.37
2018-03-06T18:34:53.478Z,15.23
2018-03-06T18:37:21.113Z,15.80
2018-03-06T18:39:49.541Z,15.23
2018-03-06T18:42:17.115Z,14.77
2018-03-06T18:44:44.691Z,15.17
2018-03-06T18:47:12.312Z,15.47
2018-03-06T18:50:01.587Z,14.63
2018-03-06T18:52:29.164Z,14.97
2018-03-06T18:54:56.758Z,15.30
2018-03-06T18:57:24.375Z,15.80
2018-03-06T19:00:03.880Z,15.97
2018-03-06T19:02:43.294Z,14.97
2018-03-06T19:05:22.712Z,15.43
2018-03-06T19:07:51.060Z,16.37
2018-03-06T19:10:18.648Z,16.03
2018-03-06T19:12:47.032Z,16.17
2018-03-06T19:15:14.600Z,16.03
2018-03-06T19:17:42.208Z,16.03
2018-03-06T19:20:10.574Z,15.53
2018-03-06T19:22:38.936Z,16.43
2018-03-06T19:25:06.568Z,15.73
2018-03-06T19:27:34.120Z,15.40
2018-03-06T19:30:01.694Z,16.13
2018-03-06T19:32:29.254Z,15.70
2018-03-06T19:34:56.809Z,16.60
2018-03-06T19:37:24.380Z,16.23
2018-03-06T19:39:51.959Z,16.57
2018-03-06T19:42:19.535Z,14.07
2018-03-06T19:44:47.104Z,14.50
2018-03-06T19:47:14.708Z,14.87
2018-03-06T19:49:42.300Z,14.43
2018-03-06T19:52:10.645Z,15.07
2018-03-06T19:54:38.466Z,15.20
2018-03-06T19:57:06.808Z,14.93
2018-03-06T19:59:34.407Z,15.30
2018-03-06T20:02:01.967Z,14.83
2018-03-06T20:04:29.551Z,14.83
2018-03-06T20:06:57.130Z,15.03
2018-03-06T20:09:24.735Z,15.57
2018-03-06T20:11:53.085Z,16.03
2018-03-06T20:14:26.222Z,15.70
2018-03-06T20:16:54.587Z,15.97
2018-03-06T20:19:41.845Z,15.20
2018-03-06T20:22:10.181Z,15.50
2018-03-06T20:24:43.317Z,15.07
2018-03-06T20:27:10.875Z,15.17
2018-03-06T20:29:38.616Z,15.60
2018-03-06T20:32:11.755Z,14.50
2018-03-06T20:34:39.565Z,15.20
2018-03-06T20:37:07.918Z,14.67
2018-03-06T20:39:41.136Z,14.70
2018-03-06T20:42:08.707Z,14.03
2018-03-06T20:44:36.332Z,14.90
2018-03-06T20:47:09.640Z,14.10
2018-03-06T20:49:37.276Z,14.00
2018-03-06T20:52:04.866Z,14.70
2018-03-06T20:54:39.012Z,14.53
2018-03-06T20:57:06.612Z,14.50
2018-03-06T20:59:34.224Z,14.10
2018-03-06T21:02:01.796Z,14.83
2018-03-06T21:04:30.184Z,14.03
2018-03-06T21:06:58.531Z,14.50
2018-03-06T21:09:26.102Z,14.27
2018-03-06T21:11:53.666Z,14.10
2018-03-06T21:14:21.535Z,15.20
2018-03-06T21:16:49.106Z,13.73
2018-03-06T21:19:16.716Z,15.23
2018-03-06T21:21:45.148Z,15.03
2018-03-06T21:24:13.618Z,16.57
2018-03-06T21:26:41.617Z,16.93
2018-03-06T21:29:09.561Z,16.67
2018-03-06T21:31:38.726Z,15.77
2018-03-06T21:34:06.418Z,15.80
2018-03-06T21:36:34.317Z,16.23
2018-03-06T21:39:01.956Z,32.60
2018-03-06T21:41:29.599Z,22.07
2018-03-06T21:43:57.733Z,20.63
2018-03-06T21:46:26.138Z,21.17
2018-03-06T21:48:53.772Z,21.70
2018-03-06T21:51:22.455Z,21.70
2018-03-06T21:53:50.807Z,20.93
2018-03-06T21:56:19.223Z,18.73
2018-03-06T21:58:46.815Z,18.37
2018-03-06T22:01:15.376Z,20.47
2018-03-06T22:03:43.154Z,18.00
2018-03-06T22:06:11.014Z,17.83
2018-03-06T22:08:38.842Z,17.50
2018-03-06T22:11:06.602Z,18.30
2018-03-06T22:13:34.194Z,18.37
2018-03-06T22:16:02.542Z,18.10
2018-03-06T22:18:30.908Z,19.10
2018-03-06T22:20:59.161Z,19.70
2018-03-06T22:23:28.375Z,20.17
2018-03-06T22:25:56.586Z,20.13
2018-03-06T22:28:24.186Z,20.03
2018-03-06T22:30:51.768Z,19.93
2018-03-06T22:33:19.341Z,20.90
2018-03-06T22:35:46.927Z,22.77
2018-03-06T22:38:14.716Z,21.23
2018-03-06T22:40:43.130Z,21.53
2018-03-06T22:43:10.724Z,21.13
2018-03-06T22:45:38.514Z,21.90
2018-03-06T22:48:06.075Z,21.83
2018-03-06T22:50:33.631Z,21.63
2018-03-06T22:53:01.216Z,21.70
2018-03-06T22:55:28.791Z,21.93
2018-03-06T22:57:56.417Z,23.60
2018-03-06T23:00:24.755Z,23.53
2018-03-06T23:02:52.322Z,23.70
2018-03-06T23:05:19.959Z,23.90
2018-03-06T23:07:48.300Z,24.00
2018-03-06T23:10:16.069Z,24.30
2018-03-06T23:12:44.491Z,24.13
2018-03-06T23:15:12.066Z,23.57
2018-03-06T23:17:39.814Z,24.67
2018-03-06T23:20:07.396Z,25.60
2018-03-06T23:22:34.987Z,24.03
2018-03-06T23:25:02.583Z,25.20
2018-03-06T23:27:31.729Z,26.60
2018-03-06T23:29:59.311Z,24.53
2018-03-06T23:32:26.889Z,25.97
2018-03-06T23:34:54.489Z,26.20
2018-03-06T23:37:22.048Z,26.33
2018-03-06T23:39:50.399Z,28.20
2018-03-06T23:42:17.964Z,28.00
2018-03-06T23:44:45.564Z,28.70
2018-03-06T23:47:13.131Z,27.63
2018-03-06T23:49:40.712Z,29.00
2018-03-06T23:52:08.302Z,28.47
2018-03-06T23:54:35.868Z,29.17
2018-03-06T23:57:03.605Z,30.90
2018-03-06T23:59:31.174Z,30.50
